Time;durP1;ratioP1;P1;durP2;ratioP2;P2;SDS_P1;SDS_P2;PMS_P1;PMS_P2;Temp;Humidity;BMP_temperature;BMP_pressure;BME280_temperature;BME280_humidity;BME280_pressure;Samples;Min_cycle;Max_cycle;Signal;HPM_P1;HPM_P2
2022/07/24 00:01:34;;;;;;;6.50;4.32;;;21.10;99.90;;;;;;4838392;29;20030;-34
2022/07/24 00:04:00;;;;;;;6.07;4.85;;;21.10;99.90;;;;;;4839085;29;20106;-40
2022/07/24 00:06:26;;;;;;;8.88;4.65;;;21.20;99.90;;;;;;4843237;29;20382;-33
2022/07/24 00:08:51;;;;;;;7.97;5.22;;;21.20;99.90;;;;;;4834195;29;20026;-38
2022/07/24 00:11:18;;;;;;;7.70;4.97;;;21.20;99.90;;;;;;4843192;29;20059;-35
2022/07/24 00:13:46;;;;;;;6.68;5.00;;;21.20;99.90;;;;;;4832007;29;20025;-38
2022/07/24 00:16:12;;;;;;;5.25;4.10;;;21.10;99.90;;;;;;4819314;29;20026;-37
2022/07/24 00:18:37;;;;;;;8.85;4.50;;;21.10;99.90;;;;;;4838668;29;20397;-37
2022/07/24 00:21:03;;;;;;;7.75;5.28;;;21.00;99.90;;;;;;4839060;29;20173;-35
2022/07/24 00:23:29;;;;;;;7.35;5.70;;;20.90;99.90;;;;;;4838472;29;20538;-32
2022/07/24 00:25:54;;;;;;;4.40;4.00;;;20.90;99.90;;;;;;4829708;29;20038;-37
2022/07/24 00:28:20;;;;;;;6.68;4.82;;;20.80;99.90;;;;;;4839885;29;20049;-36
2022/07/24 00:30:46;;;;;;;8.93;5.22;;;20.80;99.90;;;;;;4831967;29;20037;-33
2022/07/24 00:33:12;;;;;;;8.10;5.68;;;20.80;99.90;;;;;;4832751;29;20133;-38
2022/07/24 00:35:37;;;;;;;5.97;4.78;;;20.80;99.90;;;;;;4839477;29;20417;-55
2022/07/24 00:38:04;;;;;;;7.95;4.95;;;20.80;99.90;;;;;;4829108;29;20044;-37
2022/07/24 00:40:29;;;;;;;6.28;4.63;;;20.80;99.90;;;;;;4835395;29;20294;-37
2022/07/24 00:42:56;;;;;;;5.80;4.93;;;20.70;99.90;;;;;;4834943;29;20743;-38
2022/07/24 00:45:22;;;;;;;8.50;5.45;;;20.70;99.90;;;;;;4837902;29;20037;-38
2022/07/24 00:47:48;;;;;;;9.25;5.32;;;20.70;99.90;;;;;;4831112;29;20541;-37
2022/07/24 00:50:14;;;;;;;7.28;5.03;;;20.70;99.90;;;;;;4836411;29;20105;-38
2022/07/24 00:52:40;;;;;;;9.32;5.28;;;20.60;99.90;;;;;;4839139;29;20030;-36
2022/07/24 00:55:06;;;;;;;7.70;5.60;;;20.70;99.90;;;;;;4833770;29;20033;-44
2022/07/24 00:57:32;;;;;;;8.63;5.90;;;20.70;99.90;;;;;;4836715;29;20471;-38
2022/07/24 00:59:58;;;;;;;8.25;5.68;;;20.60;99.90;;;;;;4837323;29;20032;-30
2022/07/24 01:02:24;;;;;;;11.15;5.68;;;20.60;99.90;;;;;;4822802;29;20474;-32
2022/07/24 01:04:51;;;;;;;7.95;4.90;;;20.60;99.90;;;;;;4836179;29;20089;-37
2022/07/24 01:07:16;;;;;;;8.45;5.55;;;20.50;99.90;;;;;;4842442;29;20113;-32
2022/07/24 01:09:43;;;;;;;7.10;4.57;;;20.50;99.90;;;;;;4836339;29;20029;-39
2022/07/24 01:12:09;;;;;;;7.65;5.15;;;20.50;99.90;;;;;;4830479;29;20486;-37
2022/07/24 01:14:35;;;;;;;10.77;5.97;;;20.50;99.90;;;;;;4833848;29;20531;-34
2022/07/24 01:17:01;;;;;;;14.15;6.20;;;20.50;99.90;;;;;;4839067;29;20244;-38
2022/07/24 01:19:27;;;;;;;7.85;5.90;;;20.40;99.90;;;;;;4834464;29;20063;-35
2022/07/24 01:21:53;;;;;;;6.22;4.90;;;20.40;99.90;;;;;;4818522;29;20033;-36
2022/07/24 01:24:20;;;;;;;7.70;5.68;;;20.30;99.90;;;;;;4830318;29;20379;-37
2022/07/24 01:26:46;;;;;;;8.32;5.57;;;20.30;99.90;;;;;;4832230;29;20029;-36
2022/07/24 01:29:12;;;;;;;6.40;5.53;;;20.20;99.90;;;;;;4835361;29;20483;-36
2022/07/24 01:31:38;;;;;;;12.43;6.47;;;20.20;99.90;;;;;;4832125;29;20479;-35
2022/07/24 01:34:04;;;;;;;12.68;7.13;;;20.10;99.90;;;;;;4813682;29;20042;-35
2022/07/24 01:36:30;;;;;;;12.00;7.13;;;20.10;99.90;;;;;;4831905;29;20052;-36
2022/07/24 01:38:56;;;;;;;11.13;6.68;;;20.00;99.90;;;;;;4833557;29;20402;-31
2022/07/24 01:41:21;;;;;;;9.40;6.72;;;20.00;99.90;;;;;;4830723;29;20034;-32
2022/07/24 01:43:47;;;;;;;11.85;6.80;;;20.00;99.90;;;;;;4834485;29;20030;-36
2022/07/24 01:46:13;;;;;;;9.95;6.75;;;20.00;99.90;;;;;;4836675;29;20044;-32
2022/07/24 01:48:43;;;;;;;12.25;8.18;;;19.90;99.90;;;;;;4816749;29;20042;-39
2022/07/24 01:51:09;;;;;;;12.15;7.57;;;19.90;99.90;;;;;;4833120;29;20496;-34
2022/07/24 01:53:35;;;;;;;12.90;8.52;;;19.90;99.90;;;;;;4835387;29;20112;-37
2022/07/24 01:56:00;;;;;;;14.45;8.40;;;19.90;99.90;;;;;;4835856;29;20048;-36
2022/07/24 01:58:26;;;;;;;10.77;7.80;;;19.90;99.90;;;;;;4830177;29;20034;-40
2022/07/24 02:00:52;;;;;;;15.52;9.18;;;19.90;99.90;;;;;;4833895;29;20026;-37
2022/07/24 02:03:18;;;;;;;15.15;9.43;;;19.90;99.90;;;;;;4839257;29;20518;-34
2022/07/24 02:05:44;;;;;;;15.15;9.43;;;19.90;99.90;;;;;;4840139;29;20042;-33
2022/07/24 02:08:10;;;;;;;15.88;9.32;;;19.80;99.90;;;;;;4839249;29;20044;-36
2022/07/24 02:10:35;;;;;;;15.15;9.68;;;19.80;99.90;;;;;;4839461;29;20471;-37
2022/07/24 02:13:02;;;;;;;21.00;10.02;;;19.80;99.90;;;;;;4836473;29;20502;-33
2022/07/24 02:15:27;;;;;;;16.27;10.48;;;19.80;99.90;;;;;;4834532;29;20069;-36
2022/07/24 02:17:56;;;;;;;24.70;11.10;;;19.80;99.90;;;;;;4835152;29;20691;-35
2022/07/24 02:20:22;;;;;;;17.80;11.00;;;19.70;99.90;;;;;;4834531;29;20426;-35
2022/07/24 02:22:47;;;;;;;16.83;11.10;;;19.70;99.90;;;;;;4836804;29;20030;-37
2022/07/24 02:25:13;;;;;;;20.38;12.15;;;19.70;99.90;;;;;;4837179;29;20109;-33
2022/07/24 02:27:39;;;;;;;15.10;10.10;;;19.70;99.90;;;;;;4838776;29;20098;-33
2022/07/24 02:30:07;;;;;;;15.63;10.30;;;19.70;99.90;;;;;;4835533;29;20053;-35
2022/07/24 02:32:33;;;;;;;22.35;11.68;;;19.70;99.90;;;;;;4839099;29;20482;-34
2022/07/24 02:34:58;;;;;;;18.13;11.45;;;19.70;99.90;;;;;;4815864;29;20098;-35
2022/07/24 02:37:24;;;;;;;17.02;11.30;;;19.70;99.90;;;;;;4838125;29;20070;-32
2022/07/24 02:39:50;;;;;;;19.13;11.93;;;19.60;99.90;;;;;;4835624;29;20441;-48
2022/07/24 02:42:15;;;;;;;17.90;10.63;;;19.60;99.90;;;;;;4817039;29;20095;-40
2022/07/24 02:44:41;;;;;;;21.88;12.70;;;19.60;99.90;;;;;;4837056;29;20044;-32
2022/07/24 02:47:07;;;;;;;17.50;11.80;;;19.50;99.90;;;;;;4838006;29;20034;-37
2022/07/24 02:49:32;;;;;;;19.60;11.77;;;19.50;99.90;;;;;;4841354;29;20026;-36
2022/07/24 02:51:58;;;;;;;19.90;12.38;;;19.50;99.90;;;;;;4833573;29;20398;-33
2022/07/24 02:54:23;;;;;;;23.35;11.65;;;19.50;99.90;;;;;;4839123;29;20615;-35
2022/07/24 02:56:49;;;;;;;19.33;12.43;;;19.50;99.90;;;;;;4833786;29;20022;-37
2022/07/24 02:59:15;;;;;;;22.95;13.02;;;19.40;99.90;;;;;;4832365;29;21756;-32
2022/07/24 03:01:40;;;;;;;20.58;12.80;;;19.40;99.90;;;;;;4831891;29;20041;-37
2022/07/24 03:04:06;;;;;;;20.13;12.13;;;19.40;99.90;;;;;;4830276;29;20030;-32
2022/07/24 03:06:32;;;;;;;28.10;12.75;;;19.40;99.90;;;;;;4830817;29;20037;-33
2022/07/24 03:08:58;;;;;;;17.42;11.13;;;19.40;99.90;;;;;;4832438;29;20030;-39
2022/07/24 03:11:24;;;;;;;20.42;13.45;;;19.30;99.90;;;;;;4834331;29;20411;-41
2022/07/24 03:13:49;;;;;;;32.40;13.13;;;19.30;99.90;;;;;;4832490;29;20037;-40
2022/07/24 03:16:16;;;;;;;19.70;11.98;;;19.30;99.90;;;;;;4829699;29;20034;-40
2022/07/24 03:18:45;;;;;;;25.43;12.23;;;19.30;99.90;;;;;;4833795;29;20085;-39
2022/07/24 03:21:14;;;;;;;19.52;12.18;;;19.30;99.90;;;;;;4834921;29;20089;-52
2022/07/24 03:23:40;;;;;;;26.20;13.13;;;19.30;99.90;;;;;;4833487;29;20057;-33
2022/07/24 03:26:05;;;;;;;25.10;12.05;;;19.30;99.90;;;;;;4839648;29;20025;-35
2022/07/24 03:28:31;;;;;;;24.25;13.38;;;19.30;99.90;;;;;;4837676;29;20471;-37
2022/07/24 03:30:57;;;;;;;21.42;12.27;;;19.20;99.90;;;;;;4838228;29;20486;-38
2022/07/24 03:33:23;;;;;;;18.80;11.05;;;19.30;99.90;;;;;;4837749;29;20140;-39
2022/07/24 03:35:48;;;;;;;20.80;12.55;;;19.30;99.90;;;;;;4837313;29;20110;-34
2022/07/24 03:38:14;;;;;;;23.25;11.50;;;19.20;99.90;;;;;;4832487;29;20037;-37
2022/07/24 03:40:40;;;;;;;19.92;11.23;;;19.20;99.90;;;;;;4845131;29;20056;-35
2022/07/24 03:43:05;;;;;;;23.35;12.40;;;19.30;99.90;;;;;;4837570;29;20033;-37
2022/07/24 03:45:31;;;;;;;24.73;12.52;;;19.30;99.90;;;;;;4833008;29;20022;-37
2022/07/24 03:47:56;;;;;;;20.65;11.70;;;19.20;99.90;;;;;;4833943;29;20042;-34
2022/07/24 03:50:22;;;;;;;20.77;11.48;;;19.20;99.90;;;;;;4834972;29;20102;-31
2022/07/24 03:52:47;;;;;;;23.27;12.43;;;19.20;99.90;;;;;;4813990;29;20565;-34
2022/07/24 03:55:13;;;;;;;19.38;10.85;;;19.30;99.90;;;;;;4834189;29;20022;-33
2022/07/24 03:57:39;;;;;;;21.15;10.80;;;19.30;99.90;;;;;;4833911;29;20029;-36
2022/07/24 04:00:06;;;;;;;19.75;10.27;;;19.20;99.90;;;;;;4833830;29;20483;-36
2022/07/24 04:02:32;;;;;;;;;;;19.20;99.90;;;;;;4837886;29;20913;-34
2022/07/24 04:04:57;;;;;;;15.40;8.85;;;19.20;99.90;;;;;;4835114;29;19963;-35
2022/07/24 04:07:23;;;;;;;17.38;10.65;;;19.20;99.90;;;;;;4832972;29;20376;-31
2022/07/24 04:09:49;;;;;;;14.77;9.38;;;19.20;99.90;;;;;;4833396;29;20158;-37
2022/07/24 04:12:14;;;;;;;20.27;10.60;;;19.20;99.90;;;;;;4833169;29;20030;-37
2022/07/24 04:14:40;;;;;;;21.35;10.80;;;19.20;99.90;;;;;;4833544;29;20048;-31
2022/07/24 04:17:05;;;;;;;22.70;10.85;;;19.20;99.90;;;;;;4834764;29;20033;-36
2022/07/24 04:19:31;;;;;;;21.23;10.77;;;19.20;99.90;;;;;;4832169;29;20034;-33
2022/07/24 04:21:57;;;;;;;24.52;11.98;;;19.10;99.90;;;;;;4832875;29;20026;-37
2022/07/24 04:24:23;;;;;;;17.58;10.05;;;19.10;99.90;;;;;;4831593;29;20572;-41
2022/07/24 04:26:49;;;;;;;19.77;10.15;;;19.10;99.90;;;;;;4835019;29;20037;-40
2022/07/24 04:29:15;;;;;;;20.88;10.27;;;19.10;99.90;;;;;;4832871;29;20040;-35
2022/07/24 04:31:40;;;;;;;19.33;10.00;;;19.10;99.90;;;;;;4830342;29;20506;-35
2022/07/24 04:34:06;;;;;;;19.40;10.65;;;19.20;99.90;;;;;;4836997;29;20084;-37
2022/07/24 04:36:31;;;;;;;18.30;10.20;;;19.10;99.90;;;;;;4835447;29;20053;-37
2022/07/24 04:38:57;;;;;;;19.30;10.82;;;19.00;99.90;;;;;;4834654;29;20044;-38
2022/07/24 04:41:23;;;;;;;15.55;9.70;;;19.10;99.90;;;;;;4829692;29;20490;-37
2022/07/24 04:43:49;;;;;;;18.67;10.35;;;19.10;99.90;;;;;;4834939;29;20112;-38
2022/07/24 04:46:15;;;;;;;17.80;9.68;;;19.10;99.90;;;;;;4835709;29;20041;-36
2022/07/24 04:48:41;;;;;;;25.15;10.50;;;19.10;99.90;;;;;;4814308;29;20072;-36
2022/07/24 04:51:06;;;;;;;15.95;9.57;;;19.10;99.90;;;;;;4836269;29;20124;-37
2022/07/24 04:53:32;;;;;;;16.50;9.35;;;19.10;99.90;;;;;;4831043;29;20133;-37
2022/07/24 04:55:58;;;;;;;16.83;8.73;;;19.10;99.90;;;;;;4831464;29;20029;-35
2022/07/24 04:58:25;;;;;;;21.52;9.07;;;19.20;99.90;;;;;;4836589;29;20033;-34
2022/07/24 05:00:50;;;;;;;14.07;8.57;;;19.10;99.90;;;;;;4832635;29;20402;-37
2022/07/24 05:03:16;;;;;;;13.10;7.95;;;19.20;99.90;;;;;;4830391;29;20034;-38
2022/07/24 05:05:42;;;;;;;14.68;8.70;;;19.20;99.90;;;;;;4832795;29;20038;-37
2022/07/24 05:08:07;;;;;;;14.52;8.30;;;19.20;99.90;;;;;;4835763;29;20109;-35
2022/07/24 05:10:33;;;;;;;11.55;6.45;;;19.30;99.90;;;;;;4817105;29;20529;-32
2022/07/24 05:12:58;;;;;;;13.50;7.28;;;19.30;99.90;;;;;;4821040;29;20026;-33
2022/07/24 05:15:24;;;;;;;10.07;6.13;;;19.30;99.90;;;;;;4820832;29;20021;-71
2022/07/24 05:17:50;;;;;;;14.02;5.65;;;19.40;99.90;;;;;;4831107;29;20034;-36
2022/07/24 05:20:15;;;;;;;11.57;6.22;;;19.40;99.90;;;;;;4829371;29;20034;-36
2022/07/24 05:22:41;;;;;;;14.93;5.60;;;19.40;99.90;;;;;;4831118;29;20063;-35
2022/07/24 05:25:07;;;;;;;13.90;5.68;;;19.50;99.90;;;;;;4837192;29;20513;-37
2022/07/24 05:27:33;;;;;;;10.73;5.93;;;19.50;99.90;;;;;;4835394;29;20509;-37
2022/07/24 05:29:58;;;;;;;9.57;5.32;;;19.50;99.90;;;;;;4834208;29;20033;-35
2022/07/24 05:32:24;;;;;;;7.90;4.22;;;19.50;99.90;;;;;;4832407;29;20033;-32
2022/07/24 05:34:49;;;;;;;5.10;4.38;;;19.60;99.90;;;;;;4832996;29;20076;-33
2022/07/24 05:37:15;;;;;;;8.00;4.10;;;19.70;99.90;;;;;;4840857;29;20106;-37
2022/07/24 05:39:41;;;;;;;6.03;3.92;;;19.70;99.90;;;;;;4842180;29;20112;-36
2022/07/24 05:42:06;;;;;;;10.00;3.83;;;19.70;99.90;;;;;;4837331;29;20036;-37
2022/07/24 05:44:32;;;;;;;6.18;3.63;;;19.80;99.90;;;;;;4842773;29;20034;-33
2022/07/24 05:46:58;;;;;;;4.68;3.60;;;19.80;99.90;;;;;;4838390;29;20045;-32
2022/07/24 05:49:24;;;;;;;5.97;4.10;;;19.80;99.90;;;;;;4840618;29;20026;-36
2022/07/24 05:51:49;;;;;;;6.00;3.17;;;19.90;99.90;;;;;;4836097;29;20026;-35
2022/07/24 05:54:15;;;;;;;4.25;3.17;;;20.00;99.90;;;;;;4837743;29;20765;-38
2022/07/24 05:56:41;;;;;;;7.22;3.58;;;20.00;99.90;;;;;;4840154;29;20033;-32
2022/07/24 05:59:06;;;;;;;8.57;3.53;;;20.00;99.90;;;;;;4843404;29;20431;-37
2022/07/24 06:01:32;;;;;;;4.95;3.33;;;20.00;99.90;;;;;;4843135;29;20094;-45
2022/07/24 06:03:58;;;;;;;6.75;3.75;;;20.00;99.90;;;;;;4836419;29;20640;-36
2022/07/24 06:06:24;;;;;;;5.25;3.72;;;20.10;99.90;;;;;;4846051;29;20530;-43
2022/07/24 06:08:50;;;;;;;8.68;3.38;;;20.20;99.90;;;;;;4850753;29;20577;-35
2022/07/24 06:11:17;;;;;;;5.15;3.33;;;20.20;99.90;;;;;;4846574;29;20134;-33
2022/07/24 06:13:43;;;;;;;7.13;3.22;;;20.30;99.90;;;;;;4832841;29;20562;-32
2022/07/24 06:16:09;;;;;;;4.40;3.15;;;20.60;99.90;;;;;;4835311;29;20104;-35
2022/07/24 06:18:34;;;;;;;4.90;3.30;;;20.90;99.90;;;;;;4821425;29;20106;-36
2022/07/24 06:21:00;;;;;;;4.00;2.92;;;21.20;99.90;;;;;;4819847;29;20069;-35
2022/07/24 06:23:26;;;;;;;5.82;2.72;;;21.20;99.90;;;;;;4841928;29;20033;-37
2022/07/24 06:25:51;;;;;;;3.53;2.53;;;21.30;99.90;;;;;;4837188;29;20037;-40
2022/07/24 06:28:17;;;;;;;3.10;2.80;;;22.60;99.90;;;;;;4831612;29;20042;-39
2022/07/24 06:30:43;;;;;;;4.25;2.63;;;25.00;99.90;;;;;;4836710;29;20478;-38
2022/07/24 06:33:08;;;;;;;2.58;2.38;;;27.30;99.90;;;;;;4836145;29;20414;-35
2022/07/24 06:35:34;;;;;;;6.45;2.45;;;29.00;97.80;;;;;;4820411;29;20042;-35
2022/07/24 06:38:00;;;;;;;3.00;2.70;;;29.90;97.00;;;;;;4836458;29;20407;-37
2022/07/24 06:40:26;;;;;;;3.00;2.20;;;30.70;95.70;;;;;;4838274;29;20030;-40
2022/07/24 06:42:52;;;;;;;4.18;2.67;;;31.00;95.30;;;;;;4835414;29;20505;-35
2022/07/24 06:45:18;;;;;;;4.97;3.22;;;31.00;95.00;;;;;;4838363;29;20037;-31
2022/07/24 06:47:44;;;;;;;4.88;2.53;;;30.20;95.20;;;;;;4835635;29;20029;-36
2022/07/24 06:50:11;;;;;;;2.58;2.28;;;28.70;96.10;;;;;;4839575;29;20130;-35
2022/07/24 06:52:37;;;;;;;;;;;27.60;97.20;;;;;;4837418;29;20034;-41
2022/07/24 06:55:21;;;;;;;5.45;2.63;;;26.60;98.10;;;;;;4833839;29;20386;-40
2022/07/24 06:57:46;;;;;;;3.35;2.72;;;25.80;99.30;;;;;;4835685;29;20055;-33
2022/07/24 07:00:13;;;;;;;3.53;2.70;;;25.80;99.30;;;;;;4835305;29;20128;-33
2022/07/24 07:02:39;;;;;;;2.67;1.95;;;26.00;99.30;;;;;;4839672;29;20581;-39
2022/07/24 07:05:06;;;;;;;3.97;2.80;;;26.50;98.90;;;;;;4841396;29;20399;-33
2022/07/24 07:07:32;;;;;;;2.97;2.67;;;27.50;98.20;;;;;;4837908;29;20029;-37
2022/07/24 07:09:58;;;;;;;5.05;2.72;;;28.20;97.30;;;;;;4820014;29;20052;-37
2022/07/24 07:12:24;;;;;;;3.83;2.70;;;28.70;96.90;;;;;;4831382;29;20034;-40
2022/07/24 07:14:49;;;;;;;3.47;2.85;;;29.00;96.40;;;;;;4828551;29;20113;-35
2022/07/24 07:17:15;;;;;;;3.65;2.55;;;28.80;96.50;;;;;;4827616;29;20033;-38
2022/07/24 07:19:42;;;;;;;6.35;3.05;;;28.70;96.60;;;;;;4838774;29;20530;-32
2022/07/24 07:22:08;;;;;;;8.55;3.28;;;28.70;96.50;;;;;;4848244;29;21568;-35
2022/07/24 07:24:34;;;;;;;4.40;3.10;;;28.80;96.50;;;;;;4849735;29;20038;-36
2022/07/24 07:26:59;;;;;;;5.07;2.95;;;28.70;96.40;;;;;;4846530;29;20030;-41
2022/07/24 07:29:25;;;;;;;3.70;2.67;;;28.80;96.50;;;;;;4821404;29;20092;-35
2022/07/24 07:31:50;;;;;;;4.85;3.10;;;28.80;96.70;;;;;;4834586;29;20026;-47
2022/07/24 07:34:16;;;;;;;3.97;2.15;;;28.30;96.90;;;;;;4837601;29;20042;-37
2022/07/24 07:36:41;;;;;;;5.28;2.67;;;27.50;97.60;;;;;;4839167;29;20498;-37
2022/07/24 07:39:07;;;;;;;2.88;2.55;;;26.80;98.10;;;;;;4840009;29;20037;-39
2022/07/24 07:41:33;;;;;;;5.18;2.83;;;26.20;98.80;;;;;;4820212;29;20037;-43
2022/07/24 07:43:59;;;;;;;4.50;2.88;;;25.70;99.10;;;;;;4837770;29;20034;-40
2022/07/24 07:46:25;;;;;;;5.28;2.85;;;25.40;99.20;;;;;;4837458;29;20064;-35
2022/07/24 07:48:51;;;;;;;3.37;2.83;;;25.10;99.50;;;;;;4816924;29;20392;-39
2022/07/24 07:51:17;;;;;;;7.45;2.92;;;24.90;99.80;;;;;;4829830;29;20034;-39
2022/07/24 07:53:42;;;;;;;8.25;2.75;;;24.70;99.90;;;;;;4820483;29;20052;-38
2022/07/24 07:56:08;;;;;;;4.70;2.90;;;24.60;99.90;;;;;;4831890;29;20053;-38
2022/07/24 07:58:34;;;;;;;4.72;2.90;;;24.50;99.90;;;;;;4836356;29;20427;-37
2022/07/24 08:01:00;;;;;;;2.60;2.35;;;24.40;99.90;;;;;;4825591;29;20030;-33
2022/07/24 08:03:25;;;;;;;6.45;2.30;;;24.40;99.90;;;;;;4839356;29;20069;-37
2022/07/24 08:05:51;;;;;;;3.10;2.30;;;24.60;99.90;;;;;;4837848;29;20482;-37
2022/07/24 08:08:17;;;;;;;2.65;1.83;;;24.80;99.90;;;;;;4838761;29;20098;-35
2022/07/24 08:10:43;;;;;;;5.50;2.13;;;25.00;99.90;;;;;;4820198;29;20557;-35
2022/07/24 08:13:11;;;;;;;4.32;2.20;;;25.30;99.70;;;;;;4819771;29;20567;-39
2022/07/24 08:15:36;;;;;;;3.55;2.25;;;25.70;99.30;;;;;;4838170;29;20093;-34
2022/07/24 08:18:02;;;;;;;4.35;1.77;;;25.90;99.00;;;;;;4831899;29;20041;-39
2022/07/24 08:20:28;;;;;;;3.47;2.10;;;26.20;98.60;;;;;;4838555;29;20033;-37
2022/07/24 08:22:54;;;;;;;4.10;2.08;;;26.50;98.70;;;;;;4828669;29;20040;-35
2022/07/24 08:25:20;;;;;;;2.60;1.60;;;26.90;98.20;;;;;;4841188;29;20468;-37
2022/07/24 08:27:46;;;;;;;2.35;1.90;;;27.10;97.80;;;;;;4840438;29;20037;-38
2022/07/24 08:30:12;;;;;;;4.00;2.15;;;27.30;97.90;;;;;;4849520;29;20086;-35
2022/07/24 08:32:38;;;;;;;2.80;1.75;;;27.60;97.30;;;;;;4845999;29;20029;-48
2022/07/24 08:35:04;;;;;;;6.00;2.13;;;27.80;97.00;;;;;;4845601;29;20458;-44
2022/07/24 08:37:30;;;;;;;5.63;2.17;;;27.80;97.00;;;;;;4851455;29;20057;-37
2022/07/24 08:39:55;;;;;;;2.72;2.10;;;27.90;97.10;;;;;;4846171;29;20033;-34
2022/07/24 08:42:21;;;;;;;3.75;2.13;;;28.10;96.50;;;;;;4836103;29;20030;-35
2022/07/24 08:44:47;;;;;;;2.38;2.13;;;28.40;95.90;;;;;;4832915;29;20061;-33
2022/07/24 08:47:14;;;;;;;6.30;2.05;;;28.50;96.00;;;;;;4835831;29;20041;-42
2022/07/24 08:49:41;;;;;;;1.95;1.83;;;28.80;95.40;;;;;;4847403;29;20645;-45
2022/07/24 08:52:08;;;;;;;1.48;1.38;;;29.00;95.70;;;;;;4850445;29;20028;-36
2022/07/24 08:54:35;;;;;;;6.22;2.30;;;29.30;95.00;;;;;;4838492;29;20030;-36
2022/07/24 08:57:01;;;;;;;2.95;1.77;;;29.50;94.40;;;;;;4838659;29;20070;-36
2022/07/24 08:59:27;;;;;;;2.90;1.85;;;29.60;94.60;;;;;;4841232;29;20407;-39
2022/07/24 09:01:53;;;;;;;2.13;1.63;;;29.80;94.50;;;;;;4840018;29;20030;-40
2022/07/24 09:04:32;;;;;;;4.70;2.17;;;30.10;93.80;;;;;;4837854;29;20074;-38
2022/07/24 09:06:59;;;;;;;2.70;1.40;;;29.90;94.10;;;;;;4840128;29;20106;-39
2022/07/24 09:09:25;;;;;;;1.88;1.65;;;29.90;93.80;;;;;;4840859;29;20565;-38
2022/07/24 09:12:22;;;;;;;2.80;1.93;;;30.10;93.60;;;;;;4850270;29;20026;-44
2022/07/24 09:14:48;;;;;;;2.03;1.63;;;30.00;93.30;;;;;;4823430;29;20041;-38
2022/07/24 09:17:16;;;;;;;7.03;1.60;;;30.10;93.50;;;;;;4843729;29;20037;-37
2022/07/24 09:19:53;;;;;;;2.25;1.52;;;30.20;93.80;;;;;;4844970;29;20034;-37
2022/07/24 09:22:34;;;;;;;3.55;1.40;;;30.40;93.60;;;;;;4846524;29;20554;-36
2022/07/24 09:25:17;;;;;;;2.63;1.80;;;30.60;92.90;;;;;;4842308;29;20120;-36
2022/07/24 09:27:54;;;;;;;2.00;1.85;;;30.60;93.30;;;;;;4840442;29;20503;-35
2022/07/24 09:30:30;;;;;;;3.45;1.52;;;30.80;93.00;;;;;;4837402;29;20129;-38
2022/07/24 09:33:01;;;;;;;1.92;1.73;;;31.10;92.60;;;;;;4833478;29;20479;-34
2022/07/24 09:35:33;;;;;;;1.83;1.73;;;31.00;92.70;;;;;;4838139;29;20042;-35
2022/07/24 09:38:01;;;;;;;3.60;1.40;;;31.00;92.80;;;;;;4838208;29;20482;-40
2022/07/24 09:40:36;;;;;;;1.58;1.48;;;31.20;92.80;;;;;;4832692;29;20045;-38
2022/07/24 09:43:31;;;;;;;2.73;1.40;;;31.70;92.30;;;;;;4845322;29;20256;-40
2022/07/24 09:45:57;;;;;;;1.55;1.45;;;31.90;91.60;;;;;;4831302;29;20038;-40
2022/07/24 09:48:44;;;;;;;1.57;1.43;;;31.90;91.30;;;;;;4838092;29;20427;-41
2022/07/24 09:51:13;;;;;;;1.50;1.40;;;31.70;91.50;;;;;;4823057;29;20038;-38
2022/07/24 09:53:40;;;;;;;1.52;1.42;;;31.70;91.70;;;;;;4836359;29;20432;-40
2022/07/24 09:56:09;;;;;;;;;;;31.50;92.00;;;;;;4832822;29;20102;-35
2022/07/24 09:58:46;;;;;;;1.80;1.65;;;31.50;91.90;;;;;;4830889;29;19963;-36
2022/07/24 10:01:15;;;;;;;2.88;1.85;;;31.50;91.80;;;;;;4833872;29;20034;-33
2022/07/24 10:03:43;;;;;;;3.47;1.30;;;31.00;92.10;;;;;;4832265;29;20037;-35
2022/07/24 10:06:11;;;;;;;1.83;1.73;;;30.60;92.30;;;;;;4836686;29;20052;-31
2022/07/24 10:08:38;;;;;;;1.67;1.50;;;30.30;92.50;;;;;;4816369;29;20554;-37
2022/07/24 10:11:04;;;;;;;2.42;1.60;;;30.10;92.40;;;;;;4841387;29;20498;-36
2022/07/24 10:13:30;;;;;;;2.10;1.43;;;29.80;92.70;;;;;;4815415;29;20084;-35
2022/07/24 10:16:19;;;;;;;1.60;1.50;;;29.80;92.80;;;;;;4839453;29;20026;-38
2022/07/24 10:18:53;;;;;;;2.72;1.80;;;29.90;93.20;;;;;;4817621;29;20037;-41
2022/07/24 10:21:26;;;;;;;5.68;1.85;;;30.20;92.60;;;;;;4840636;29;20537;-39
2022/07/24 10:24:03;;;;;;;2.97;2.05;;;30.10;92.60;;;;;;4841493;29;20044;-38
2022/07/24 10:26:50;;;;;;;1.55;1.38;;;30.00;92.70;;;;;;4838121;29;20555;-35
2022/07/24 10:29:19;;;;;;;1.58;1.42;;;29.90;92.60;;;;;;4841629;29;20636;-36
2022/07/24 10:31:48;;;;;;;1.83;1.73;;;30.10;92.60;;;;;;4839173;29;20490;-39
2022/07/24 10:34:51;;;;;;;1.70;1.60;;;30.50;92.20;;;;;;4839604;29;20390;-38
2022/07/24 10:37:23;;;;;;;1.50;1.40;;;31.00;91.90;;;;;;4827921;29;20474;-72
2022/07/24 10:40:01;;;;;;;1.77;1.67;;;31.30;91.60;;;;;;4840168;29;20094;-39
2022/07/24 10:42:27;;;;;;;2.30;1.50;;;31.20;91.90;;;;;;4819554;29;20046;-39
2022/07/24 10:45:19;;;;;;;1.30;1.20;;;31.20;92.20;;;;;;4842009;29;20504;-39
2022/07/24 10:47:45;;;;;;;1.80;1.42;;;31.30;91.70;;;;;;4840438;29;20560;-37
2022/07/24 10:50:14;;;;;;;2.83;1.30;;;31.20;91.50;;;;;;4833994;29;20050;-34
2022/07/24 10:52:41;;;;;;;2.15;2.00;;;31.10;91.80;;;;;;4835718;29;20037;-44
2022/07/24 10:55:22;;;;;;;1.50;1.40;;;30.90;92.30;;;;;;4839808;29;20033;-41
2022/07/24 10:58:00;;;;;;;4.43;1.90;;;30.80;92.20;;;;;;4832248;29;20026;-35
2022/07/24 11:00:32;;;;;;;2.15;2.00;;;30.30;92.70;;;;;;4842121;29;20038;-38
2022/07/24 11:03:05;;;;;;;1.60;1.50;;;30.30;92.80;;;;;;4840580;29;20082;-35
2022/07/24 11:05:38;;;;;;;11.77;1.60;;;30.40;92.80;;;;;;4835747;29;20527;-38
2022/07/24 11:08:17;;;;;;;2.95;1.52;;;30.40;92.70;;;;;;4835647;29;20495;-42
2022/07/24 11:10:54;;;;;;;2.35;1.80;;;30.40;92.60;;;;;;4824364;29;20052;-32
2022/07/24 11:13:32;;;;;;;1.70;1.55;;;30.40;92.40;;;;;;4835104;29;20072;-39
2022/07/24 11:16:10;;;;;;;1.90;1.27;;;30.20;92.30;;;;;;4829291;29;20542;-37
2022/07/24 11:18:40;;;;;;;1.63;1.38;;;30.10;92.40;;;;;;4843868;29;20518;-33
2022/07/24 11:21:07;;;;;;;2.65;1.33;;;29.90;92.90;;;;;;4842927;29;20033;-35
2022/07/24 11:23:32;;;;;;;1.27;1.17;;;29.90;92.90;;;;;;4840771;29;20098;-47
2022/07/24 11:26:35;;;;;;;1.42;1.10;;;29.90;92.90;;;;;;4838235;29;20041;-38
2022/07/24 11:29:13;;;;;;;1.90;1.48;;;29.80;93.00;;;;;;4801691;29;20126;-37
2022/07/24 11:31:40;;;;;;;7.50;1.40;;;29.80;92.80;;;;;;4839569;29;20053;-39
2022/07/24 11:34:08;;;;;;;3.55;1.40;;;29.90;92.70;;;;;;4844945;29;20025;-34
2022/07/24 11:36:35;;;;;;;2.00;1.40;;;29.90;92.40;;;;;;4837635;29;20065;-39
2022/07/24 11:39:03;;;;;;;1.10;1.00;;;29.90;92.60;;;;;;4840312;29;20036;-36
2022/07/24 11:41:43;;;;;;;1.90;1.20;;;29.90;92.60;;;;;;4836973;29;20029;-37
2022/07/24 11:44:08;;;;;;;3.75;1.50;;;30.10;92.70;;;;;;4848803;29;20469;-33
2022/07/24 11:46:36;;;;;;;3.03;1.35;;;30.20;92.80;;;;;;4845984;29;20040;-36
2022/07/24 11:49:06;;;;;;;2.65;1.38;;;30.30;92.20;;;;;;4846304;29;20342;-37
2022/07/24 11:51:40;;;;;;;1.70;1.50;;;30.20;92.60;;;;;;4842721;29;20030;-43
2022/07/24 11:54:05;;;;;;;2.00;1.52;;;30.30;92.90;;;;;;4809973;29;20057;-33
2022/07/24 11:56:32;;;;;;;4.90;2.60;;;30.40;92.70;;;;;;4836919;29;20057;-36
2022/07/24 11:58:58;;;;;;;1.20;1.10;;;30.50;92.40;;;;;;4841504;29;20040;-52
2022/07/24 12:01:24;;;;;;;2.20;1.30;;;30.60;92.50;;;;;;4842271;29;20033;-37
2022/07/24 12:03:54;;;;;;;1.40;1.30;;;30.70;92.20;;;;;;4838654;29;20494;-46
2022/07/24 12:06:20;;;;;;;1.40;1.30;;;30.80;92.30;;;;;;4841677;29;20030;-41
2022/07/24 12:08:46;;;;;;;1.27;1.17;;;30.70;92.30;;;;;;4837178;29;20534;-34
2022/07/24 12:11:21;;;;;;;2.70;1.38;;;30.80;92.40;;;;;;4838742;29;20042;-38
2022/07/24 12:13:47;;;;;;;2.10;1.40;;;31.00;92.00;;;;;;4819231;29;20047;-35
2022/07/24 12:16:28;;;;;;;1.80;1.00;;;30.90;92.40;;;;;;4843827;29;20419;-37
2022/07/24 12:19:20;;;;;;;1.58;1.05;;;31.00;92.00;;;;;;4839261;29;20116;-38
2022/07/24 12:21:48;;;;;;;2.03;0.98;;;31.10;92.10;;;;;;4838623;29;20113;-37
2022/07/24 12:24:14;;;;;;;2.17;1.83;;;31.30;91.70;;;;;;4840307;29;20049;-38
2022/07/24 12:26:51;;;;;;;1.73;1.40;;;31.30;91.80;;;;;;4843653;29;20052;-38
2022/07/24 12:29:17;;;;;;;7.40;1.52;;;31.30;91.40;;;;;;4835983;29;20030;-39
2022/07/24 12:31:44;;;;;;;1.20;1.13;;;31.30;91.40;;;;;;4844742;29;20130;-33
2022/07/24 12:34:10;;;;;;;1.92;1.20;;;31.40;91.40;;;;;;4822686;29;20450;-37
2022/07/24 12:36:37;;;;;;;2.80;1.20;;;31.40;91.50;;;;;;4837244;29;20327;-38
2022/07/24 12:39:04;;;;;;;1.90;1.20;;;31.40;91.40;;;;;;4841342;29;20521;-36
2022/07/24 12:41:30;;;;;;;1.35;1.20;;;31.30;91.50;;;;;;4840308;29;20022;-36
2022/07/24 12:43:58;;;;;;;1.40;1.30;;;31.20;91.80;;;;;;4839375;29;20049;-38
2022/07/24 12:46:37;;;;;;;7.90;1.55;;;31.30;91.80;;;;;;4852005;29;20442;-39